Time;durP1;ratioP1;P1;durP2;ratioP2;P2;SDS_P1;SDS_P2;PMS_P1;PMS_P2;Temp;Humidity;BMP_temperature;BMP_pressure;BME280_temperature;BME280_humidity;BME280_pressure;Samples;Min_cycle;Max_cycle;Signal;HPM_P1;HPM_P2
2022/05/24 00:02:12;;;;;;;;;;;;;;;13.70;61.54;99625.38;4969779;28;1238;-96
2022/05/24 00:04:39;;;;;;;;;;;;;;;13.69;61.61;99621.06;4940176;29;1210;-96
2022/05/24 00:07:05;;;;;;;;;;;;;;;13.69;61.52;99624.59;4970500;28;1307;-96
2022/05/24 00:09:32;;;;;;;;;;;;;;;13.70;61.68;99631.63;4940332;29;1299;-96
2022/05/24 00:11:58;;;;;;;;;;;;;;;13.68;61.60;99625.66;4969813;28;1283;-96
2022/05/24 00:17:05;;;;;;;;;;;;;;;13.68;61.82;99619.41;4967302;28;1318;-96
2022/05/24 00:19:31;;;;;;;;;;;;;;;13.66;61.72;99617.00;4940318;29;1151;-96
2022/05/24 00:21:57;;;;;;;;;;;;;;;13.66;61.46;99616.19;4967816;28;1274;-96
2022/05/24 00:24:24;;;;;;;;;;;;;;;13.66;61.76;99611.56;4939878;29;1331;-95
2022/05/24 00:26:50;;;;;;;;;;;;;;;13.66;61.45;99611.56;4967757;28;1200;-96
2022/05/24 00:29:17;;;;;;;;;;;;;;;13.66;61.67;99613.47;4940149;29;1308;-96
2022/05/24 00:31:43;;;;;;;;;;;;;;;13.66;61.58;99610.78;4967667;28;1316;-96
2022/05/24 00:34:10;;;;;;;;;;;;;;;13.64;61.70;99616.44;4943495;29;1979;-96
2022/05/24 00:36:36;;;;;;;;;;;;;;;13.63;61.68;99612.91;4971807;28;1241;-96
2022/05/24 00:39:03;;;;;;;;;;;;;;;13.62;61.72;99614.00;4943072;29;1219;-96
2022/05/24 00:41:29;;;;;;;;;;;;;;;13.62;61.53;99610.50;4970984;28;1161;-96
2022/05/24 00:43:56;;;;;;;;;;;;;;;13.62;61.59;99605.06;4943206;29;1427;-96
2022/05/24 00:46:22;;;;;;;;;;;;;;;13.62;61.65;99605.06;4943315;29;1238;-96
2022/05/24 00:48:49;;;;;;;;;;;;;;;13.60;61.62;99605.31;4971268;28;1316;-96
2022/05/24 00:51:15;;;;;;;;;;;;;;;13.60;61.77;99605.31;4943255;29;1469;-96
2022/05/24 00:53:42;;;;;;;;;;;;;;;13.58;61.75;99607.47;4971412;28;1919;-96
2022/05/24 00:56:08;;;;;;;;;;;;;;;13.58;61.55;99607.47;4943185;29;1258;-96
2022/05/24 00:58:34;;;;;;;;;;;;;;;13.58;61.64;99604.75;4970952;28;1284;-96
2022/05/24 01:01:01;;;;;;;;;;;;;;;13.59;61.63;99597.50;4943081;29;1202;-96
2022/05/24 01:03:27;;;;;;;;;;;;;;;13.57;61.48;99596.94;4970950;28;1173;-95
2022/05/24 01:05:53;;;;;;;;;;;;;;;13.56;61.66;99597.97;4943050;29;1221;-96
2022/05/24 01:08:20;;;;;;;;;;;;;;;13.56;61.61;99590.72;4972797;28;1406;-96
2022/05/24 01:10:48;;;;;;;;;;;;;;;13.55;61.47;99597.19;4943534;29;1324;-96
2022/05/24 01:13:14;;;;;;;;;;;;;;;13.55;61.39;99594.47;4970541;28;1915;-96
2022/05/24 01:15:43;;;;;;;;;;;;;;;13.54;61.53;99592.84;4942938;29;1292;-96
2022/05/24 01:18:09;;;;;;;;;;;;;;;13.53;61.32;99593.94;4942559;29;1254;-96
2022/05/24 01:20:35;;;;;;;;;;;;;;;13.53;61.38;99587.69;4944859;29;1351;-96
2022/05/24 01:23:02;;;;;;;;;;;;;;;13.53;61.62;99593.09;4971354;28;1327;-96
2022/05/24 01:25:28;;;;;;;;;;;;;;;13.52;61.39;99591.47;4943659;29;1252;-96
2022/05/24 01:27:55;;;;;;;;;;;;;;;13.51;61.51;99592.56;4970248;28;1320;-96
2022/05/24 01:30:21;;;;;;;;;;;;;;;13.50;61.57;99586.34;4942712;29;1369;-96
2022/05/24 01:38:16;;;;;;;;;;;;;;;13.49;61.46;99567.66;4969986;28;1185;-96
2022/05/24 01:40:43;;;;;;;;;;;;;;;13.48;61.17;99569.56;4942324;29;1195;-96
2022/05/24 01:43:09;;;;;;;;;;;;;;;13.47;61.40;99556.28;4942192;29;1191;-96
2022/05/24 01:45:35;;;;;;;;;;;;;;;13.48;61.47;99557.94;4942259;29;1476;-96
2022/05/24 01:48:02;;;;;;;;;;;;;;;13.46;61.42;99557.38;4969834;28;1232;-96
2022/05/24 01:50:28;;;;;;;;;;;;;;;13.45;61.37;99551.16;4941586;29;1355;-96
2022/05/24 01:52:55;;;;;;;;;;;;;;;13.45;61.44;99561.97;4969122;28;1274;-96
2022/05/24 01:55:21;;;;;;;;;;;;;;;13.46;61.27;99551.97;4941934;29;1907;-96
2022/05/24 01:57:48;;;;;;;;;;;;;;;13.45;61.37;99555.75;4969009;28;1226;-96
2022/05/24 02:00:14;;;;;;;;;;;;;;;13.44;61.41;99554.91;4941893;29;1215;-96
2022/05/24 02:02:41;;;;;;;;;;;;;;;13.44;61.39;99563.03;4969135;28;1304;-96
2022/05/24 02:05:07;;;;;;;;;;;;;;;13.44;61.38;99554.91;4942140;29;1313;-96
2022/05/24 02:07:34;;;;;;;;;;;;;;;13.43;61.36;99555.19;4969296;28;1410;-96
2022/05/24 02:10:00;;;;;;;;;;;;;;;13.42;61.33;99548.16;4941616;29;1252;-96
2022/05/24 02:12:27;;;;;;;;;;;;;;;13.40;61.22;99548.41;4968716;28;1327;-96
2022/05/24 02:14:53;;;;;;;;;;;;;;;13.41;61.17;99541.91;4941390;29;1911;-96
2022/05/24 02:17:20;;;;;;;;;;;;;;;13.40;61.25;99545.72;4968745;28;1333;-96
2022/05/24 02:19:46;;;;;;;;;;;;;;;13.39;61.05;99536.78;4941897;29;1238;-96
2022/05/24 02:22:12;;;;;;;;;;;;;;;13.39;61.31;99541.38;4941725;29;1166;-96
2022/05/24 02:24:39;;;;;;;;;;;;;;;13.38;60.99;99542.44;4941338;29;1432;-96
2022/05/24 02:27:05;;;;;;;;;;;;;;;13.37;61.17;99543.53;4968859;28;1253;-96
2022/05/24 02:29:32;;;;;;;;;;;;;;;13.37;61.29;99546.22;4941186;29;1570;-96
2022/05/24 02:31:58;;;;;;;;;;;;;;;13.36;61.23;99540.00;4968300;28;1251;-96
2022/05/24 02:34:24;;;;;;;;;;;;;;;13.36;61.08;99545.44;4941102;29;1985;-96
2022/05/24 02:36:51;;;;;;;;;;;;;;;13.35;61.06;99538.41;4969176;28;1297;-95
2022/05/24 02:39:17;;;;;;;;;;;;;;;13.36;61.10;99536.50;4939860;29;1294;-96
2022/05/24 02:41:43;;;;;;;;;;;;;;;13.34;61.01;99530.53;4924486;29;1175;-96
2022/05/24 02:44:09;;;;;;;;;;;;;;;13.33;60.96;99529.72;4928564;29;1454;-96
2022/05/24 02:46:36;;;;;;;;;;;;;;;13.33;61.17;99529.72;4941177;29;1399;-96
2022/05/24 02:49:02;;;;;;;;;;;;;;;13.32;61.08;99522.66;4970803;28;1190;-96
2022/05/24 02:51:29;;;;;;;;;;;;;;;13.31;61.12;99526.47;4941105;29;1291;-96
2022/05/24 02:53:55;;;;;;;;;;;;;;;13.32;60.95;99528.06;4970465;28;1902;-96
2022/05/24 02:56:22;;;;;;;;;;;;;;;13.31;61.11;99531.88;4939883;29;1308;-96
2022/05/24 02:58:48;;;;;;;;;;;;;;;13.31;60.93;99522.94;4973224;28;1325;-96
2022/05/24 03:01:15;;;;;;;;;;;;;;;13.30;60.97;99522.13;4970967;28;1197;-96
2022/05/24 03:03:41;;;;;;;;;;;;;;;13.30;60.91;99521.34;4940741;29;1292;-96
2022/05/24 03:06:08;;;;;;;;;;;;;;;13.30;60.93;99518.63;4970329;28;1220;-96
2022/05/24 03:11:18;;;;;;;;;;;;;;;13.27;61.04;99511.84;4970054;28;1172;-96
2022/05/24 03:16:28;;;;;;;;;;;;;;;13.28;61.13;99504.53;4970774;28;1301;-96
2022/05/24 03:18:55;;;;;;;;;;;;;;;13.27;61.05;99509.16;4940334;29;1204;-96
2022/05/24 03:21:21;;;;;;;;;;;;;;;13.26;60.96;99509.41;4971056;28;1335;-96
2022/05/24 03:23:48;;;;;;;;;;;;;;;13.25;60.73;99500.47;4940605;29;1224;-96
2022/05/24 03:26:14;;;;;;;;;;;;;;;13.25;61.08;99500.47;4970462;28;1284;-96
2022/05/24 03:28:41;;;;;;;;;;;;;;;13.24;60.94;99495.31;4940329;29;1127;-96
2022/05/24 03:31:07;;;;;;;;;;;;;;;13.24;61.02;99498.03;4970289;28;1282;-96
2022/05/24 03:33:34;;;;;;;;;;;;;;;13.23;60.98;99491.78;4940179;29;1265;-96
2022/05/24 03:36:00;;;;;;;;;;;;;;;13.22;60.80;99492.84;4970814;28;1914;-96
2022/05/24 03:38:28;;;;;;;;;;;;;;;13.22;60.91;99486.63;4940110;29;1455;-96
2022/05/24 03:40:54;;;;;;;;;;;;;;;13.21;61.04;99485.84;4940419;29;1281;-96
2022/05/24 03:43:21;;;;;;;;;;;;;;;13.21;60.96;99490.41;4970051;28;1256;-96
2022/05/24 03:45:47;;;;;;;;;;;;;;;13.20;60.68;99486.88;4940125;29;1363;-96
2022/05/24 03:48:13;;;;;;;;;;;;;;;13.19;60.89;99487.97;4970178;28;1232;-96
2022/05/24 03:50:40;;;;;;;;;;;;;;;13.18;60.81;99479.06;4940039;29;1360;-96
2022/05/24 03:53:06;;;;;;;;;;;;;;;13.17;60.98;99488.22;4969877;28;1256;-96
2022/05/24 03:55:32;;;;;;;;;;;;;;;13.18;60.69;99491.75;4939993;29;1915;-96
2022/05/24 03:58:02;;;;;;;;;;;;;;;13.17;60.71;99477.41;4972280;28;1294;-96
2022/05/24 04:00:29;;;;;;;;;;;;;;;13.17;60.73;99490.13;4940419;29;1243;-96
2022/05/24 04:02:55;;;;;;;;;;;;;;;13.16;60.67;99477.69;4971577;28;1179;-96
2022/05/24 04:05:22;;;;;;;;;;;;;;;13.15;60.77;99476.06;4939998;29;1205;-96
2022/05/24 04:07:49;;;;;;;;;;;;;;;13.15;60.75;99473.38;4974789;28;1421;-96
2022/05/24 04:10:16;;;;;;;;;;;;;;;13.14;60.84;99486.03;4943733;29;1445;-96
2022/05/24 04:12:42;;;;;;;;;;;;;;;13.14;60.90;99480.63;4975563;28;1368;-96
2022/05/24 04:15:08;;;;;;;;;;;;;;;13.12;60.57;99477.41;4943832;29;1912;-96
2022/05/24 04:17:35;;;;;;;;;;;;;;;13.13;60.69;99479.03;4975109;28;1290;-96
2022/05/24 04:20:01;;;;;;;;;;;;;;;13.14;60.83;99474.44;4943998;29;1270;-95
2022/05/24 04:22:28;;;;;;;;;;;;;;;13.12;60.72;99476.59;4975192;28;1202;-96
2022/05/24 04:24:54;;;;;;;;;;;;;;;13.12;60.66;99471.19;4943783;29;1302;-96
2022/05/24 04:27:20;;;;;;;;;;;;;;;13.11;60.71;99466.84;4975157;28;1196;-96
2022/05/24 04:29:48;;;;;;;;;;;;;;;13.11;60.85;99456.84;4943786;29;1269;-96
2022/05/24 04:32:14;;;;;;;;;;;;;;;13.10;60.58;99460.63;4974974;28;1302;-96
2022/05/24 04:34:40;;;;;;;;;;;;;;;13.10;60.79;99459.81;4943300;29;1907;-96
2022/05/24 04:37:07;;;;;;;;;;;;;;;13.10;60.57;99457.13;4973479;28;1444;-96
2022/05/24 04:39:33;;;;;;;;;;;;;;;13.10;60.67;99451.72;4974959;28;1290;-96
2022/05/24 04:44:44;;;;;;;;;;;;;;;13.09;60.51;99444.69;4974852;28;1261;-96
2022/05/24 04:47:10;;;;;;;;;;;;;;;13.07;60.71;99439.53;4943470;29;1262;-96
2022/05/24 04:49:37;;;;;;;;;;;;;;;13.08;60.75;99443.03;4975790;28;1469;-96
2022/05/24 04:52:04;;;;;;;;;;;;;;;13.07;60.55;99436.81;4943536;29;1425;-96
2022/05/24 04:54:30;;;;;;;;;;;;;;;13.07;60.68;99444.13;4943380;29;1982;-96
2022/05/24 04:56:56;;;;;;;;;;;;;;;13.07;60.67;99433.31;4978140;28;1175;-95
2022/05/24 04:59:23;;;;;;;;;;;;;;;13.07;60.60;99425.22;4945413;29;1321;-95
2022/05/24 05:01:51;;;;;;;;;;;;;;;13.06;60.70;99424.41;4943229;29;1183;-96
2022/05/24 05:04:17;;;;;;;;;;;;;;;13.06;60.57;99424.41;4943207;29;1286;-96
2022/05/24 05:06:44;;;;;;;;;;;;;;;13.06;60.60;99421.69;4975404;28;1294;-96
2022/05/24 05:09:10;;;;;;;;;;;;;;;13.06;60.62;99412.75;4942947;29;1276;-96
2022/05/24 05:11:36;;;;;;;;;;;;;;;13.05;60.60;99416.53;4975196;28;1293;-95
2022/05/24 05:14:03;;;;;;;;;;;;;;;13.05;60.52;99417.34;4974602;28;1298;-96
2022/05/24 05:16:29;;;;;;;;;;;;;;;13.05;60.33;99419.25;4943061;29;1918;-96
2022/05/24 05:18:56;;;;;;;;;;;;;;;13.04;60.33;99414.91;4974288;28;1367;-95
2022/05/24 05:21:26;;;;;;;;;;;;;;;13.04;60.46;99413.03;4943394;29;1686;-96
2022/05/24 05:23:52;;;;;;;;;;;;;;;13.04;60.41;99406.81;4974565;28;1272;-96
2022/05/24 05:26:19;;;;;;;;;;;;;;;13.04;60.57;99406.81;4942409;29;1292;-96
2022/05/24 05:28:45;;;;;;;;;;;;;;;13.03;60.42;99407.88;4974383;28;1276;-96
2022/05/24 05:31:16;;;;;;;;;;;;;;;13.03;60.60;99407.88;4942365;29;1429;-96
2022/05/24 05:33:43;;;;;;;;;;;;;;;13.01;60.52;99402.75;4974803;28;1403;-96
2022/05/24 05:36:12;;;;;;;;;;;;;;;13.01;60.52;99408.16;4940431;29;2040;-96
2022/05/24 05:38:44;;;;;;;;;;;;;;;13.01;60.60;99400.03;4942528;29;1206;-96
2022/05/24 05:41:10;;;;;;;;;;;;;;;13.00;60.55;99398.44;4974212;28;1265;-96
2022/05/24 05:43:37;;;;;;;;;;;;;;;13.01;60.41;99399.22;4941915;29;1302;-95
2022/05/24 05:46:04;;;;;;;;;;;;;;;13.00;60.41;99398.44;4974537;28;1197;-96
2022/05/24 05:48:30;;;;;;;;;;;;;;;12.99;60.57;99394.06;4974246;28;1209;-96
2022/05/24 05:50:56;;;;;;;;;;;;;;;12.98;60.35;99397.88;4941995;29;1406;-96
2022/05/24 05:53:23;;;;;;;;;;;;;;;12.98;60.56;99389.75;4941915;29;1248;-95
2022/05/24 05:55:49;;;;;;;;;;;;;;;12.98;60.43;99381.66;4974201;28;2037;-96
2022/05/24 05:58:16;;;;;;;;;;;;;;;12.98;60.43;99391.66;4942139;29;1509;-96
2022/05/24 06:00:42;;;;;;;;;;;;;;;12.96;60.42;99376.50;4973991;28;1177;-95
2022/05/24 06:03:08;;;;;;;;;;;;;;;12.98;60.67;99378.13;4941608;29;1437;-96
2022/05/24 06:05:35;;;;;;;;;;;;;;;12.99;60.30;99369.75;4974155;28;1203;-96
2022/05/24 06:08:01;;;;;;;;;;;;;;;12.97;60.22;99363.81;4941715;29;1202;-95
2022/05/24 06:10:28;;;;;;;;;;;;;;;12.95;60.40;99364.06;4973993;28;1243;-96
2022/05/24 06:12:55;;;;;;;;;;;;;;;12.95;60.18;99358.66;4941690;29;1169;-96
2022/05/24 06:15:24;;;;;;;;;;;;;;;12.96;60.38;99352.16;4974041;28;1914;-96
2022/05/24 06:17:50;;;;;;;;;;;;;;;12.96;60.20;99354.06;4941628;29;1144;-96
2022/05/24 06:20:17;;;;;;;;;;;;;;;12.97;60.38;99355.72;4973832;28;1330;-96
2022/05/24 06:22:43;;;;;;;;;;;;;;;12.96;60.41;99356.78;4941508;29;1316;-96
2022/05/24 06:25:09;;;;;;;;;;;;;;;12.96;60.40;99359.47;4973587;28;1327;-96
2022/05/24 06:27:36;;;;;;;;;;;;;;;12.96;60.41;99356.78;4941680;29;1174;-95
2022/05/24 06:30:02;;;;;;;;;;;;;;;12.97;60.23;99358.41;4972330;28;1430;-96
2022/05/24 06:32:30;;;;;;;;;;;;;;;12.96;60.33;99362.97;4941174;29;1294;-96
2022/05/24 06:34:56;;;;;;;;;;;;;;;12.97;60.06;99353.00;4958528;28;1910;-95
2022/05/24 06:37:22;;;;;;;;;;;;;;;12.96;60.33;99360.28;4941420;29;1240;-96
2022/05/24 06:39:49;;;;;;;;;;;;;;;12.96;60.12;99364.88;4973637;28;1217;-95
2022/05/24 06:42:15;;;;;;;;;;;;;;;12.96;60.05;99354.88;4941067;29;1299;-95
2022/05/24 06:44:41;;;;;;;;;;;;;;;12.96;60.22;99359.47;4973488;28;1178;-95
2022/05/24 06:47:08;;;;;;;;;;;;;;;12.96;60.30;99352.16;4941038;29;1371;-96
2022/05/24 06:49:36;;;;;;;;;;;;;;;12.96;60.30;99346.75;4972961;28;1193;-96
2022/05/24 06:52:02;;;;;;;;;;;;;;;12.97;60.29;99339.50;4940905;29;1336;-96
2022/05/24 06:54:31;;;;;;;;;;;;;;;12.98;60.24;99345.72;4972903;28;1259;-96
2022/05/24 06:56:57;;;;;;;;;;;;;;;12.97;60.11;99342.19;4940398;29;1903;-95
2022/05/24 07:02:26;;;;;;;;;;;;;;;12.98;60.21;99343.81;4940479;29;1270;-96
2022/05/24 07:04:52;;;;;;;;;;;;;;;12.98;60.21;99341.13;4972133;28;1169;-96
2022/05/24 07:07:19;;;;;;;;;;;;;;;12.98;60.27;99335.72;4941066;29;1265;-96
2022/05/24 07:09:45;;;;;;;;;;;;;;;12.99;60.05;99341.91;4972048;28;1360;-96
2022/05/24 07:12:11;;;;;;;;;;;;;;;12.99;60.19;99333.81;4940589;29;1342;-95
2022/05/24 07:14:38;;;;;;;;;;;;;;;12.99;60.21;99333.81;4972320;28;1997;-96
2022/05/24 07:17:04;;;;;;;;;;;;;;;12.99;60.08;99325.69;4940454;29;1169;-95
2022/05/24 07:19:32;;;;;;;;;;;;;;;13.00;60.22;99335.44;4971836;28;1305;-96
2022/05/24 07:21:58;;;;;;;;;;;;;;;13.00;60.00;99333.56;4940530;29;1242;-96
2022/05/24 07:24:24;;;;;;;;;;;;;;;13.00;60.13;99327.31;4971923;28;1245;-96
2022/05/24 07:26:51;;;;;;;;;;;;;;;13.00;60.19;99335.44;4940619;29;1301;-96
2022/05/24 07:29:18;;;;;;;;;;;;;;;13.00;60.15;99325.44;4971504;28;1214;-96
2022/05/24 07:31:44;;;;;;;;;;;;;;;13.00;60.21;99320.03;4940069;29;1257;-96
2022/05/24 07:34:11;;;;;;;;;;;;;;;13.01;60.17;99320.84;4949783;28;1493;-96
2022/05/24 07:36:37;;;;;;;;;;;;;;;13.01;60.25;99326.25;4971163;28;1979;-96
2022/05/24 07:39:03;;;;;;;;;;;;;;;13.01;60.14;99332.47;4940316;29;1300;-96
2022/05/24 07:46:58;;;;;;;;;;;;;;;13.02;60.12;99314.38;4940316;29;1345;-96
2022/05/24 07:49:24;;;;;;;;;;;;;;;13.02;60.27;99317.88;4971323;28;1410;-96
2022/05/24 07:51:51;;;;;;;;;;;;;;;13.02;60.00;99314.38;4940544;29;1363;-96
2022/05/24 07:54:17;;;;;;;;;;;;;;;13.02;60.27;99309.75;4970961;28;1367;-96
2022/05/24 07:56:43;;;;;;;;;;;;;;;13.03;60.05;99302.47;4939911;29;1906;-96
2022/05/24 07:59:10;;;;;;;;;;;;;;;13.04;60.07;99304.09;4970777;28;1173;-96
2022/05/24 08:01:37;;;;;;;;;;;;;;;13.03;60.32;99300.59;4940055;29;1302;-96
2022/05/24 08:04:03;;;;;;;;;;;;;;;13.03;60.13;99297.91;4971591;28;1333;-95
2022/05/24 08:06:29;;;;;;;;;;;;;;;13.04;60.20;99302.22;4940144;29;1217;-96
2022/05/24 08:08:56;;;;;;;;;;;;;;;13.04;60.13;99298.69;4970551;28;1321;-95
2022/05/24 08:11:22;;;;;;;;;;;;;;;13.04;60.16;99304.91;4939980;29;1307;-96
2022/05/24 08:13:49;;;;;;;;;;;;;;;13.05;60.24;99292.22;4970589;28;1343;-96
2022/05/24 08:16:15;;;;;;;;;;;;;;;13.05;60.05;99289.50;4940095;29;1982;-96
2022/05/24 08:18:44;;;;;;;;;;;;;;;13.05;60.18;99293.00;4970735;28;1591;-96
2022/05/24 08:21:10;;;;;;;;;;;;;;;13.05;60.09;99290.31;4939897;29;1231;-96
2022/05/24 08:23:37;;;;;;;;;;;;;;;13.06;60.07;99281.16;4970006;28;1271;-95
2022/05/24 08:26:03;;;;;;;;;;;;;;;13.07;60.33;99276.53;4940215;29;1324;-95
2022/05/24 08:28:29;;;;;;;;;;;;;;;13.06;60.40;99273.03;4970104;28;1276;-96
2022/05/24 08:30:56;;;;;;;;;;;;;;;13.07;60.34;99263.03;4938709;29;1291;-95
2022/05/24 08:33:22;;;;;;;;;;;;;;;13.06;60.17;99254.13;4922919;29;1207;-96
2022/05/24 08:35:48;;;;;;;;;;;;;;;13.09;60.36;99252.78;4927618;29;1903;-95
2022/05/24 08:38:15;;;;;;;;;;;;;;;13.07;60.20;99253.03;4941089;29;1307;-96
2022/05/24 08:40:42;;;;;;;;;;;;;;;13.07;60.21;99254.91;4975557;28;1381;-96
2022/05/24 08:43:08;;;;;;;;;;;;;;;13.09;60.28;99252.78;4954176;29;1225;-94
2022/05/24 08:48:26;;;;;;;;;;;;;;;13.09;60.13;99252.78;4949600;29;1334;-96
2022/05/24 08:50:52;;;;;;;;;;;;;;;13.09;60.35;99239.25;4974426;28;1297;-95
2022/05/24 08:53:19;;;;;;;;;;;;;;;13.09;60.22;99234.66;4941357;29;1245;-96
2022/05/24 08:55:45;;;;;;;;;;;;;;;13.09;60.36;99237.34;4975882;28;1918;-96
2022/05/24 08:58:11;;;;;;;;;;;;;;;13.10;60.27;99225.47;4944068;29;1175;-96
2022/05/24 09:00:38;;;;;;;;;;;;;;;13.11;60.16;99228.97;4944133;29;1406;-96
2022/05/24 09:03:05;;;;;;;;;;;;;;;13.12;60.26;99227.91;4975324;28;1444;-96
2022/05/24 09:05:32;;;;;;;;;;;;;;;13.12;60.34;99219.81;4943509;29;1205;-96
2022/05/24 09:07:58;;;;;;;;;;;;;;;13.12;60.17;99220.59;4975740;28;1298;-96
2022/05/24 09:10:25;;;;;;;;;;;;;;;13.13;60.22;99218.72;4943599;29;1310;-96
2022/05/24 09:12:51;;;;;;;;;;;;;;;13.13;60.36;99222.22;4974850;28;1318;-96
2022/05/24 09:15:17;;;;;;;;;;;;;;;13.13;60.29;99216.81;4943416;29;1991;-96
2022/05/24 09:17:44;;;;;;;;;;;;;;;13.14;60.41;99215.72;4974800;28;1208;-96
2022/05/24 09:20:11;;;;;;;;;;;;;;;13.14;60.24;99218.44;4943186;29;1178;-96
2022/05/24 09:22:38;;;;;;;;;;;;;;;13.15;60.43;99206.56;4974868;28;1205;-95
2022/05/24 09:25:04;;;;;;;;;;;;;;;13.16;60.24;99212.75;4943078;29;1273;-96
2022/05/24 09:27:31;;;;;;;;;;;;;;;13.16;60.27;99204.66;4975516;28;1177;-96
2022/05/24 09:29:57;;;;;;;;;;;;;;;13.16;60.24;99204.66;4974350;28;1336;-95
2022/05/24 09:32:24;;;;;;;;;;;;;;;13.17;60.39;99187.34;4974644;28;1203;-96
2022/05/24 09:34:50;;;;;;;;;;;;;;;13.17;60.30;99190.84;4943221;29;1301;-96
2022/05/24 09:37:17;;;;;;;;;;;;;;;13.18;60.38;99189.78;4974213;28;1986;-96
2022/05/24 09:39:44;;;;;;;;;;;;;;;13.19;60.46;99182.50;4942511;29;1166;-96
2022/05/24 09:42:10;;;;;;;;;;;;;;;13.19;60.23;99175.19;4942211;29;1335;-96
2022/05/24 09:44:36;;;;;;;;;;;;;;;13.19;60.32;99175.19;4973825;28;1173;-95
2022/05/24 09:47:03;;;;;;;;;;;;;;;13.20;60.30;99173.28;4942298;29;1182;-96
2022/05/24 09:49:29;;;;;;;;;;;;;;;13.21;60.10;99179.50;4973634;28;1189;-95
2022/05/24 09:51:56;;;;;;;;;;;;;;;13.21;60.21;99188.44;4941676;29;1304;-96
2022/05/24 09:54:24;;;;;;;;;;;;;;;13.22;60.25;99183.84;4974671;28;1304;-96
2022/05/24 09:56:51;;;;;;;;;;;;;;;13.23;60.24;99188.16;4942211;29;1977;-96
2022/05/24 09:59:17;;;;;;;;;;;;;;;13.23;60.33;99186.25;4973397;28;1406;-96
2022/05/24 10:01:44;;;;;;;;;;;;;;;13.23;60.32;99188.97;4941822;29;1171;-96
2022/05/24 10:04:10;;;;;;;;;;;;;;;13.24;60.33;99193.31;4973238;28;1189;-96
2022/05/24 10:06:36;;;;;;;;;;;;;;;13.24;60.17;99195.22;4942074;29;1209;-96
2022/05/24 10:09:03;;;;;;;;;;;;;;;13.26;60.42;99193.06;4973259;28;1201;-96
2022/05/24 10:11:29;;;;;;;;;;;;;;;13.26;60.46;99201.16;4941742;29;1205;-96
2022/05/24 10:13:55;;;;;;;;;;;;;;;13.26;60.34;99196.56;4941853;29;1285;-96
2022/05/24 10:16:22;;;;;;;;;;;;;;;13.27;60.26;99192.00;4941521;29;1972;-96
2022/05/24 10:18:48;;;;;;;;;;;;;;;13.27;60.20;99192.00;4972954;28;1173;-96
2022/05/24 10:21:15;;;;;;;;;;;;;;;13.27;60.52;99184.69;4941335;29;1251;-96
2022/05/24 10:23:41;;;;;;;;;;;;;;;13.27;60.44;99179.28;4973450;28;1201;-96
2022/05/24 10:26:07;;;;;;;;;;;;;;;13.29;60.42;99185.22;4941575;29;1246;-96
2022/05/24 10:28:34;;;;;;;;;;;;;;;13.27;60.43;99181.97;4973257;28;1402;-96
2022/05/24 10:31:00;;;;;;;;;;;;;;;13.29;60.29;99179.00;4973426;28;1300;-96
2022/05/24 10:38:55;;;;;;;;;;;;;;;13.30;60.35;99173.34;4973689;28;1208;-96
2022/05/24 10:41:21;;;;;;;;;;;;;;;13.32;60.49;99173.03;4941221;29;1390;-96
2022/05/24 10:43:47;;;;;;;;;;;;;;;13.32;60.21;99175.75;4973275;28;1216;-96
2022/05/24 10:46:14;;;;;;;;;;;;;;;13.32;60.35;99175.75;4941692;29;1201;-95
2022/05/24 10:48:43;;;;;;;;;;;;;;;13.31;60.49;99171.44;4973536;28;1258;-96
2022/05/24 10:51:09;;;;;;;;;;;;;;;13.32;60.36;99178.44;4941127;29;1372;-95
2022/05/24 10:53:36;;;;;;;;;;;;;;;13.33;60.42;99182.78;4973841;28;1209;-96
2022/05/24 10:56:02;;;;;;;;;;;;;;;13.32;60.40;99176.56;4941219;29;1907;-96
2022/05/24 10:58:28;;;;;;;;;;;;;;;13.33;60.34;99180.91;4941734;29;1213;-96
2022/05/24 11:00:55;;;;;;;;;;;;;;;13.34;60.51;99182.50;4973981;28;1237;-96
2022/05/24 11:03:21;;;;;;;;;;;;;;;13.34;60.50;99176.28;4942360;29;1213;-96
2022/05/24 11:05:47;;;;;;;;;;;;;;;13.35;60.30;99192.25;4974924;28;1264;-96
2022/05/24 11:08:14;;;;;;;;;;;;;;;13.34;60.55;99190.63;4976997;28;1229;-96
2022/05/24 11:10:41;;;;;;;;;;;;;;;13.36;60.23;99191.16;4945755;29;1292;-96
2022/05/24 11:13:10;;;;;;;;;;;;;;;13.36;60.28;99188.47;4947040;29;1281;-96
2022/05/24 11:15:36;;;;;;;;;;;;;;;13.36;60.49;99195.78;4948604;28;1290;-96
2022/05/24 11:18:03;;;;;;;;;;;;;;;13.37;60.39;99208.19;4980971;28;1915;-96
2022/05/24 11:20:32;;;;;;;;;;;;;;;13.37;60.45;99208.19;4950283;29;1232;-96
2022/05/24 11:22:59;;;;;;;;;;;;;;;13.38;60.40;99207.13;4951782;29;1373;-96
2022/05/24 11:25:29;;;;;;;;;;;;;;;13.38;60.34;99220.63;4953655;29;1252;-96
2022/05/24 11:27:59;;;;;;;;;;;;;;;13.38;60.54;99229.59;4956632;29;1396;-96
2022/05/24 11:30:29;;;;;;;;;;;;;;;13.39;60.37;99230.38;4991987;28;1332;-96
2022/05/24 11:33:07;;;;;;;;;;;;;;;13.38;60.52;99237.69;4990525;28;1357;-96
2022/05/24 14:47:15;;;;;;;;;;;;;;;13.34;60.83;99187.13;4984510;23;2661;-96
2022/05/24 14:56:57;;;;;;;;;;;;;;;13.33;61.07;99180.91;4956188;28;1899;-96
2022/05/24 15:18:49;;;;;;;;;;;;;;;13.32;61.06;99176.56;4960807;28;1255;-96
2022/05/24 15:24:51;;;;;;;;;;;;;;;13.32;60.96;99171.16;4955892;29;822;-96
2022/05/24 15:27:22;;;;;;;;;;;;;;;13.31;61.02;99172.25;4955680;29;1416;-96
2022/05/24 15:30:03;;;;;;;;;;;;;;;13.32;61.00;99181.16;4956851;28;1032;-96
2022/05/24 15:32:30;;;;;;;;;;;;;;;13.31;60.85;99166.84;4956225;29;1333;-96
2022/05/24 15:34:59;;;;;;;;;;;;;;;13.31;60.89;99166.84;4956558;29;1203;-96
2022/05/24 15:37:26;;;;;;;;;;;;;;;13.31;61.03;99172.25;4935260;29;1883;-96
2022/05/24 15:39:53;;;;;;;;;;;;;;;13.31;61.02;99174.13;4944618;29;1386;-96
2022/05/24 15:45:16;;;;;;;;;;;;;;;13.30;60.81;99173.34;4942088;28;1525;-96
2022/05/24 16:03:32;;;;;;;;;;;;;;;13.29;60.80;99157.38;4948804;29;2264;-95
2022/05/24 16:11:27;;;;;;;;;;;;;;;13.29;60.82;99160.06;4908102;29;1362;-95
2022/05/24 16:13:54;;;;;;;;;;;;;;;13.29;60.80;99152.75;4925086;29;1365;-93
2022/05/24 16:16:21;;;;;;;;;;;;;;;13.28;60.79;99151.16;4933266;29;1931;-94
2022/05/24 16:18:48;;;;;;;;;;;;;;;13.28;60.93;99151.16;4924963;29;1281;-94
2022/05/24 16:21:14;;;;;;;;;;;;;;;13.28;60.93;99145.75;4924511;29;1816;-94
2022/05/24 16:23:41;;;;;;;;;;;;;;;13.28;60.82;99148.44;4924084;29;1268;-94
2022/05/24 16:26:07;;;;;;;;;;;;;;;13.28;60.72;99143.03;4917623;29;1694;-93
2022/05/24 16:28:33;;;;;;;;;;;;;;;13.28;60.77;99144.94;4922984;29;1899;-93
2022/05/24 16:31:00;;;;;;;;;;;;;;;13.28;60.89;99134.13;4921885;29;1924;-94
2022/05/24 16:33:26;;;;;;;;;;;;;;;13.27;60.81;99146.84;4922855;29;1750;-93
2022/05/24 16:35:53;;;;;;;;;;;;;;;13.27;60.85;99148.72;4935230;29;1853;-93
2022/05/24 16:38:19;;;;;;;;;;;;;;;13.26;60.95;99139.78;4920250;29;2581;-93
2022/05/24 16:40:45;;;;;;;;;;;;;;;13.28;60.76;99142.22;4922224;29;1594;-93
2022/05/24 16:43:12;;;;;;;;;;;;;;;13.26;60.94;99142.50;4923627;29;1775;-94
2022/05/24 16:45:39;;;;;;;;;;;;;;;13.27;60.82;99137.91;4920709;29;2042;-94
2022/05/24 16:48:05;;;;;;;;;;;;;;;13.26;60.81;99138.97;4923807;29;1967;-96
2022/05/24 16:50:32;;;;;;;;;;;;;;;13.27;60.80;99137.91;4931048;29;1790;-96
2022/05/24 16:53:01;;;;;;;;;;;;;;;13.27;60.76;99137.91;4923060;29;2403;-96
2022/05/24 17:00:59;;;;;;;;;;;;;;;13.26;60.66;99131.69;4922472;29;1717;-96
2022/05/24 17:03:26;;;;;;;;;;;;;;;13.25;60.67;99138.19;4933846;29;1874;-96
2022/05/24 17:05:52;;;;;;;;;;;;;;;13.26;60.88;99138.97;4918144;29;1997;-96
2022/05/24 17:08:19;;;;;;;;;;;;;;;13.25;60.65;99146.28;4921896;29;1630;-96
2022/05/24 17:10:45;;;;;;;;;;;;;;;13.25;60.80;99143.59;4923798;29;1407;-96
2022/05/24 17:13:12;;;;;;;;;;;;;;;13.24;60.92;99144.66;4923168;29;1694;-96
2022/05/24 17:15:39;;;;;;;;;;;;;;;13.26;60.79;99142.50;4923260;29;1238;-96
2022/05/24 17:18:05;;;;;;;;;;;;;;;13.26;60.74;99152.50;4922800;29;1915;-96
2022/05/24 17:20:32;;;;;;;;;;;;;;;13.25;60.84;99162.50;4923539;29;1277;-96
2022/05/24 17:22:59;;;;;;;;;;;;;;;13.25;60.65;99156.25;4923350;29;1222;-96
2022/05/24 17:25:25;;;;;;;;;;;;;;;13.24;60.80;99155.47;4923670;29;1369;-96
2022/05/24 17:27:52;;;;;;;;;;;;;;;13.24;60.93;99143.84;4921493;29;1675;-95
2022/05/24 17:30:18;;;;;;;;;;;;;;;13.24;60.95;99151.94;4920615;29;2875;-95
2022/05/24 17:32:45;;;;;;;;;;;;;;;13.25;60.85;99156.25;4919426;29;3730;-96
2022/05/24 17:35:11;;;;;;;;;;;;;;;13.24;60.75;99158.16;4923187;29;1417;-96
2022/05/24 17:37:38;;;;;;;;;;;;;;;13.24;60.77;99157.34;4923173;29;2998;-95
2022/05/24 17:40:04;;;;;;;;;;;;;;;13.24;60.68;99154.66;4923348;29;1192;-96